Time;durP1;ratioP1;P1;durP2;ratioP2;P2;SDS_P1;SDS_P2;PMS_P1;PMS_P2;Temp;Humidity;BMP_temperature;BMP_pressure;BME280_temperature;BME280_humidity;BME280_pressure;Samples;Min_cycle;Max_cycle;Signal;HPM_P1;HPM_P2
2022/01/19 00:00:32;;;;;;;2.97;2.10;;;;;;;2.33;95.97;100257.22;4087643;28;20042;-72
2022/01/19 00:02:33;;;;;;;3.80;2.20;;;;;;;2.29;96.29;100269.78;4088042;28;20054;-72
2022/01/19 00:04:33;;;;;;;2.75;2.08;;;;;;;2.27;96.74;100261.88;4089755;28;20427;-71
2022/01/19 00:06:33;;;;;;;4.18;2.42;;;;;;;2.21;96.76;100263.81;4091446;28;20116;-71
2022/01/19 00:08:34;;;;;;;3.15;2.10;;;;;;;2.17;97.48;100262.75;4090304;28;20815;-72
2022/01/19 00:10:34;;;;;;;3.38;2.20;;;;;;;2.14;97.59;100254.28;4088858;28;20488;-72
2022/01/19 00:12:36;;;;;;;4.43;2.38;;;;;;;2.08;97.79;100256.22;4090536;28;20043;-71
2022/01/19 00:14:36;;;;;;;2.70;2.05;;;;;;;2.06;97.84;100247.47;4087992;28;20051;-73
2022/01/19 00:16:36;;;;;;;3.47;2.35;;;;;;;2.03;97.53;100239.84;4087204;28;20130;-71
2022/01/19 00:18:37;;;;;;;3.92;2.33;;;;;;;2.01;97.93;100236.59;4088669;28;20045;-73
2022/01/19 00:20:37;;;;;;;3.58;2.13;;;;;;;2.01;98.18;100222.13;4087918;28;20101;-73
2022/01/19 00:22:38;;;;;;;3.05;2.28;;;;;;;1.96;97.45;100212.03;4088356;28;20098;-71
2022/01/19 00:24:40;;;;;;;3.78;2.25;;;;;;;1.90;97.68;100204.94;4087579;28;20039;-71
2022/01/19 00:26:40;;;;;;;6.03;2.85;;;;;;;1.84;97.24;100203.34;4087071;28;20403;-70
2022/01/19 00:28:40;;;;;;;4.07;2.47;;;;;;;1.79;96.98;100200.63;4088530;28;20055;-73
2022/01/19 00:30:41;;;;;;;5.68;2.70;;;;;;;1.78;97.52;100204.47;4090423;28;20052;-71
2022/01/19 00:32:41;;;;;;;3.65;2.28;;;;;;;1.77;98.73;100200.09;4094952;28;20054;-71
2022/01/19 00:34:42;;;;;;;4.03;2.50;;;;;;;1.75;98.84;100200.38;4087338;28;20490;-72
2022/01/19 00:36:42;;;;;;;4.50;2.50;;;;;;;1.74;97.89;100204.22;4087268;28;20063;-73
2022/01/19 00:38:42;;;;;;;3.78;2.80;;;;;;;1.71;98.48;100193.03;4087571;28;20086;-70
2022/01/19 00:40:44;;;;;;;4.32;2.50;;;;;;;1.67;99.34;100201.78;4087657;28;20350;-72
2022/01/19 00:42:45;;;;;;;5.40;2.70;;;;;;;1.62;98.44;100195.50;4087876;28;20051;-72
2022/01/19 00:44:46;;;;;;;4.47;2.97;;;;;;;1.59;98.32;100206.97;4090787;28;20051;-73
2022/01/19 00:46:46;;;;;;;5.28;3.45;;;;;;;1.58;98.65;100206.16;4087452;28;20101;-72
2022/01/19 00:48:47;;;;;;;3.45;2.88;;;;;;;1.58;99.31;100202.63;4092338;28;20829;-72
2022/01/19 00:50:47;;;;;;;5.13;2.85;;;;;;;1.57;99.31;100211.88;4087701;28;20396;-72
2022/01/19 00:52:49;;;;;;;3.90;2.40;;;;;;;1.58;100.00;100213.53;4088197;28;20043;-71
2022/01/19 00:54:49;;;;;;;6.23;3.00;;;;;;;1.54;99.41;100204.25;4087142;28;20099;-72
2022/01/19 00:56:49;;;;;;;6.50;3.45;;;;;;;1.54;100.00;100196.88;4087518;28;20043;-73
2022/01/19 00:58:50;;;;;;;4.63;3.03;;;;;;;1.56;99.52;100207.50;4088004;28;20209;-72
2022/01/19 01:00:50;;;;;;;4.72;3.13;;;;;;;1.54;97.76;100207.78;4087321;28;20118;-72
2022/01/19 01:02:51;;;;;;;3.65;2.75;;;;;;;1.48;97.96;100194.44;4086592;28;20066;-73
2022/01/19 01:04:51;;;;;;;5.00;2.92;;;;;;;1.49;99.12;100191.47;4088514;28;20513;-72
2022/01/19 01:06:52;;;;;;;4.22;2.75;;;;;;;1.51;99.23;100197.44;4086712;28;20548;-72
2022/01/19 01:08:53;;;;;;;4.03;3.08;;;;;;;1.55;99.92;100200.44;4087743;28;20667;-72
2022/01/19 01:10:53;;;;;;;3.92;2.92;;;;;;;1.53;98.97;100205.34;4093939;28;20047;-72
2022/01/19 01:12:56;;;;;;;4.97;3.22;;;;;;;1.50;98.71;100209.44;4087790;28;20066;-73
2022/01/19 01:19:34;;;;;;;3.45;2.80;;;;;;;1.44;99.10;100185.19;4093574;28;20086;-72
2022/01/19 01:21:36;;;;;;;4.32;3.15;;;;;;;1.43;99.32;100178.91;4090295;28;20067;-72
2022/01/19 01:23:36;;;;;;;4.78;3.30;;;;;;;1.41;99.01;100175.66;4089808;28;20096;-72
2022/01/19 01:25:38;;;;;;;4.03;2.88;;;;;;;1.41;98.87;100183.84;4090879;28;20051;-72
2022/01/19 01:27:39;;;;;;;4.32;3.17;;;;;;;1.46;99.59;100185.72;4089409;28;20130;-72
2022/01/19 01:29:40;;;;;;;4.47;2.90;;;;;;;1.48;99.16;100178.88;4094690;28;20503;-72
2022/01/19 01:31:41;;;;;;;4.38;3.55;;;;;;;1.48;98.47;100175.34;4099835;28;20204;-72
2022/01/19 01:33:42;;;;;;;4.32;3.40;;;;;;;1.50;99.41;100165.81;4090753;28;20589;-72
2022/01/19 01:35:42;;;;;;;5.07;3.55;;;;;;;1.52;99.58;100169.06;4090753;28;20367;-72
2022/01/19 01:37:42;;;;;;;4.57;3.05;;;;;;;1.54;99.44;100161.41;4090774;28;20809;-72
2022/01/19 01:39:43;;;;;;;5.35;3.65;;;;;;;1.52;98.83;100152.69;4091043;28;20039;-72
2022/01/19 01:41:43;;;;;;;5.30;3.50;;;;;;;1.48;98.29;100137.16;4089344;28;20079;-72
2022/01/19 01:43:45;;;;;;;5.75;3.65;;;;;;;1.49;99.75;100138.78;4089265;28;20058;-72
2022/01/19 01:45:49;;;;;;;4.72;3.53;;;;;;;1.52;99.89;100143.69;4089531;28;20042;-72
2022/01/19 01:47:55;;;;;;;5.32;3.33;;;;;;;1.48;99.68;100137.97;4088185;28;20047;-72
2022/01/19 01:54:15;;;;;;;5.18;3.30;;;;;;;1.47;99.83;100154.63;4091595;28;20323;-72
2022/01/19 01:56:16;;;;;;;3.85;2.92;;;;;;;1.48;99.00;100157.06;4092466;28;20027;-72
2022/01/19 01:58:17;;;;;;;5.32;3.53;;;;;;;1.51;99.59;100151.06;4095185;28;20637;-72
2022/01/19 02:00:24;;;;;;;4.13;3.38;;;;;;;1.57;100.00;100146.41;4089418;28;20035;-72
2022/01/19 02:02:24;;;;;;;5.78;3.50;;;;;;;1.65;100.00;100148.56;4089416;28;20505;-72
2022/01/19 02:04:25;;;;;;;4.18;3.15;;;;;;;1.68;100.00;100139.81;4088762;28;20071;-72
2022/01/19 02:07:01;;;;;;;4.00;3.00;;;;;;;1.70;99.46;100134.91;4094441;28;20055;-73
2022/01/19 02:08:58;;;;;;;4.53;2.90;;;;;;;1.72;99.41;100121.78;4095987;28;20135;-73
2022/01/19 02:15:54;;;;;;;4.82;3.00;;;;;;;1.66;98.22;100101.09;4090601;28;20054;-73
2022/01/19 02:22:43;;;;;;;4.40;3.40;;;;;;;1.62;98.88;100078.19;4091491;28;20061;-73
2022/01/19 02:24:45;;;;;;;3.95;3.05;;;;;;;1.62;98.85;100070.00;4090281;28;20046;-72
2022/01/19 02:29:10;;;;;;;4.63;3.30;;;;;;;1.54;97.63;100067.84;4107647;28;20272;-72
2022/01/19 02:36:36;;;;;;;4.55;3.28;;;;;;;1.55;99.26;100039.47;4116877;28;20491;-72
2022/01/19 02:40:47;;;;;;;4.68;3.40;;;;;;;1.59;99.67;100029.66;4095833;28;20562;-72
2022/01/19 02:49:14;;;;;;;5.00;3.35;;;;;;;1.60;98.31;100017.63;4088577;28;20062;-72
2022/01/19 02:49:16;;;;;;;4.63;3.53;;;;;;;1.57;97.70;100008.09;4088762;28;20043;-72
2022/01/19 02:51:17;;;;;;;7.85;3.75;;;;;;;1.58;98.33;100014.38;4090904;28;20050;-73
2022/01/19 02:53:17;;;;;;;8.00;4.43;;;;;;;1.55;98.29;100006.72;4089354;28;20545;-73
2022/01/19 02:55:18;;;;;;;5.25;3.78;;;;;;;1.56;98.67;100003.72;4090097;28;20132;-73
2022/01/19 02:57:24;;;;;;;4.90;3.60;;;;;;;1.54;97.96;99996.91;4088678;28;20054;-72
2022/01/19 03:08:47;;;;;;;5.38;3.97;;;;;;;1.36;99.10;99969.19;4095562;28;20124;-72
2022/01/19 03:10:48;;;;;;;5.72;4.05;;;;;;;1.40;99.53;99969.44;4094465;28;20047;-72
2022/01/19 03:12:48;;;;;;;5.75;3.88;;;;;;;1.40;98.78;99972.97;4092599;28;20477;-72
2022/01/19 03:14:48;;;;;;;5.50;3.88;;;;;;;1.46;99.91;99959.31;4091428;28;20046;-72
2022/01/19 03:16:49;;;;;;;4.40;3.53;;;;;;;1.47;99.39;99960.94;4087897;28;20538;-72
2022/01/19 03:18:49;;;;;;;4.25;2.97;;;;;;;1.43;98.22;99954.44;4088814;28;20138;-72
2022/01/19 03:20:50;;;;;;;5.10;3.97;;;;;;;1.37;98.33;99945.47;4088518;28;20138;-72
2022/01/19 03:23:04;;;;;;;5.93;3.28;;;;;;;1.36;98.18;99933.75;4088343;28;20051;-72
2022/01/19 03:25:11;;;;;;;5.32;3.25;;;;;;;1.33;98.69;99937.06;4089433;28;20380;-72
2022/01/19 03:27:11;;;;;;;4.70;3.40;;;;;;;1.32;99.27;99926.41;4093403;28;20058;-72
2022/01/19 03:29:12;;;;;;;4.22;3.30;;;;;;;1.30;99.97;99910.31;4089660;28;20483;-72
2022/01/19 03:31:12;;;;;;;4.35;3.15;;;;;;;1.29;99.83;99907.88;4088498;28;20047;-72
2022/01/19 03:33:13;;;;;;;4.22;3.58;;;;;;;1.25;99.61;99909.56;4089570;28;20495;-72
2022/01/19 03:35:15;;;;;;;4.07;3.20;;;;;;;1.26;100.00;99908.47;4089108;28;20486;-72
2022/01/19 03:37:15;;;;;;;5.00;3.70;;;;;;;1.27;100.00;99904.63;4092224;28;20554;-72
2022/01/19 03:39:16;;;;;;;3.90;2.72;;;;;;;1.30;100.00;99893.16;4093554;28;20089;-72
2022/01/19 03:41:16;;;;;;;4.75;3.47;;;;;;;1.33;100.00;99881.69;4090191;28;20078;-72
2022/01/19 03:43:17;;;;;;;4.45;3.50;;;;;;;1.32;100.00;99875.41;4087835;28;20097;-72
2022/01/19 03:45:17;;;;;;;4.03;3.25;;;;;;;1.33;99.81;99879.78;4096414;28;20295;-72
2022/01/19 03:47:18;;;;;;;3.88;2.92;;;;;;;1.33;99.38;99876.25;4089684;28;20039;-72
2022/01/19 03:49:24;;;;;;;5.38;3.72;;;;;;;1.25;98.67;99864.03;4088107;28;20054;-72
2022/01/19 03:51:24;;;;;;;3.92;3.35;;;;;;;1.23;99.78;99870.84;4089760;28;20598;-72
2022/01/19 03:53:25;;;;;;;4.05;3.08;;;;;;;1.19;99.83;99867.88;4088265;28;20059;-72
2022/01/19 03:55:25;;;;;;;4.45;2.83;;;;;;;1.19;99.36;99864.34;4088154;28;20100;-72
2022/01/19 03:57:25;;;;;;;3.88;2.80;;;;;;;1.14;99.00;99857.00;4089361;28;20047;-72
2022/01/19 03:59:26;;;;;;;4.53;3.53;;;;;;;1.12;98.44;99864.63;4087931;28;20055;-72
2022/01/19 04:01:27;;;;;;;4.68;3.40;;;;;;;1.09;99.26;99849.66;4090174;28;20051;-72
2022/01/19 04:03:42;;;;;;;4.65;3.35;;;;;;;1.11;100.00;99850.19;4093226;28;20148;-72
2022/01/19 04:06:06;;;;;;;4.28;3.20;;;;;;;1.15;100.00;99841.44;4088654;28;20055;-72
2022/01/19 04:08:05;;;;;;;5.10;3.28;;;;;;;1.16;100.00;99843.91;4092080;28;20109;-71
2022/01/19 04:10:05;;;;;;;3.75;3.15;;;;;;;1.16;100.00;99843.91;4095351;28;20475;-71
2022/01/19 04:12:09;;;;;;;5.38;3.47;;;;;;;1.13;99.91;99836.28;4092159;28;20054;-71
2022/01/19 04:16:09;;;;;;;4.78;3.45;;;;;;;1.12;100.00;99840.91;4088074;28;20035;-71
2022/01/19 04:18:10;;;;;;;3.97;3.58;;;;;;;1.12;100.00;99821.03;4087698;28;20031;-71
2022/01/19 04:20:11;;;;;;;3.90;3.42;;;;;;;1.09;99.89;99816.97;4088516;28;20136;-71
2022/01/19 04:22:14;;;;;;;4.65;3.78;;;;;;;1.02;99.48;99804.75;4089162;28;20451;-71
2022/01/19 04:24:14;;;;;;;4.05;3.42;;;;;;;0.98;100.00;99807.19;4087621;28;20054;-71
2022/01/19 04:26:14;;;;;;;3.95;3.20;;;;;;;0.95;100.00;99804.25;4088993;28;20538;-71
2022/01/19 04:28:15;;;;;;;4.70;3.42;;;;;;;0.88;99.96;99796.38;4086768;28;20074;-72
2022/01/19 04:30:16;;;;;;;4.13;3.50;;;;;;;0.83;100.00;99794.50;4087105;28;20130;-72
2022/01/19 04:32:22;;;;;;;4.10;3.15;;;;;;;0.82;100.00;99792.03;4091170;28;20498;-71
2022/01/19 04:34:22;;;;;;;4.00;3.20;;;;;;;0.71;100.00;99790.50;4097526;28;20199;-71
2022/01/19 04:36:57;;;;;;;5.20;3.33;;;;;;;0.65;100.00;99780.72;4088324;28;20082;-71
2022/01/19 04:46:22;;;;;;;3.72;3.15;;;;;;;0.19;100.00;99776.31;4092228;28;20153;-71
2022/01/19 05:02:13;;;;;;;8.60;4.95;;;;;;;0.03;100.00;99766.56;4098431;28;20058;-71
2022/01/19 05:06:20;;;;;;;8.68;4.90;;;;;;;-0.06;100.00;99766.31;4095084;28;20428;-71
2022/01/19 05:15:06;;;;;;;6.03;4.15;;;;;;;-0.52;100.00;99754.72;4092930;28;20286;-72
2022/01/19 05:17:06;;;;;;;7.43;4.60;;;;;;;-0.60;100.00;99752.53;4092027;28;20053;-72
2022/01/19 05:19:07;;;;;;;7.53;4.78;;;;;;;-0.72;100.00;99766.44;4091358;28;20463;-72
2022/01/19 05:21:07;;;;;;;8.65;4.90;;;;;;;-0.81;100.00;99761.81;4094467;28;20074;-71
2022/01/19 05:23:07;;;;;;;9.10;5.13;;;;;;;-0.80;100.00;99755.28;4091460;28;20054;-71
2022/01/19 05:25:08;;;;;;;9.40;5.53;;;;;;;-0.81;100.00;99756.38;4090272;28;20104;-71
2022/01/19 05:27:08;;;;;;;10.50;5.90;;;;;;;-0.74;100.00;99743.34;4089477;28;20045;-71
2022/01/19 05:29:09;;;;;;;8.27;5.00;;;;;;;-0.73;100.00;99729.47;4092614;28;20035;-71
2022/01/19 05:31:09;;;;;;;7.97;4.53;;;;;;;-0.80;100.00;99733.56;4090873;28;20498;-71
2022/01/19 05:33:09;;;;;;;9.57;5.30;;;;;;;-0.81;100.00;99734.63;4092979;28;20137;-72
2022/01/19 05:35:10;;;;;;;7.28;4.53;;;;;;;-0.90;100.00;99728.94;4092406;28;20307;-72
2022/01/19 05:37:10;;;;;;;8.00;4.80;;;;;;;-0.95;100.00;99718.88;4088009;28;20051;-72
2022/01/19 05:39:11;;;;;;;7.30;4.85;;;;;;;-0.98;100.00;99724.03;4089556;28;20054;-71
2022/01/19 05:41:11;;;;;;;14.45;9.40;;;;;;;-1.05;100.00;99720.78;4089802;28;20089;-71
2022/01/19 05:43:12;;;;;;;10.38;6.72;;;;;;;-1.03;100.00;99732.19;4092724;28;20161;-71
2022/01/19 05:45:12;;;;;;;14.23;7.90;;;;;;;-1.08;100.00;99729.44;4109160;28;20041;-71
2022/01/19 05:47:14;;;;;;;14.45;9.32;;;;;;;-1.11;100.00;99727.28;4095220;28;20051;-71
2022/01/19 05:49:15;;;;;;;12.70;7.50;;;;;;;-1.20;100.00;99735.16;4093402;28;20040;-71
2022/01/19 05:51:15;;;;;;;10.85;6.60;;;;;;;-1.23;100.00;99722.13;4091358;28;20053;-71
2022/01/19 05:53:16;;;;;;;8.90;5.72;;;;;;;-1.26;100.00;99720.75;4090057;28;21198;-71
2022/01/19 05:55:16;;;;;;;10.68;7.22;;;;;;;-1.24;100.00;99728.63;4089396;28;20418;-71
2022/01/19 05:57:17;;;;;;;11.35;8.75;;;;;;;-1.27;100.00;99716.41;4093221;28;20058;-71
2022/01/19 05:59:17;;;;;;;9.60;6.68;;;;;;;-1.19;100.00;99718.59;4090973;28;20054;-71
2022/01/19 06:01:17;;;;;;;9.45;6.22;;;;;;;-1.19;100.00;99718.59;4091269;28;20043;-71
2022/01/19 06:03:18;;;;;;;10.38;6.82;;;;;;;-1.13;100.00;99714.00;4091505;28;20390;-71
2022/01/19 06:05:19;;;;;;;8.23;6.07;;;;;;;-1.17;100.00;99710.97;4089023;28;20054;-71
2022/01/19 06:07:19;;;;;;;11.10;5.78;;;;;;;-1.21;100.00;99709.09;4092642;28;20047;-71
2022/01/19 06:09:34;;;;;;;11.32;6.57;;;;;;;-1.28;100.00;99701.22;4089855;28;20074;-72
2022/01/19 06:11:34;;;;;;;11.77;8.02;;;;;;;-1.36;100.00;99700.94;4088883;28;20039;-72
2022/01/19 06:13:35;;;;;;;10.10;5.80;;;;;;;-1.39;100.00;99696.06;4088509;28;20105;-72
2022/01/19 06:15:35;;;;;;;6.97;5.43;;;;;;;-1.39;100.00;99696.06;4109135;28;20399;-72
2022/01/19 06:17:36;;;;;;;9.25;5.80;;;;;;;-1.45;100.00;99696.03;4091115;28;20359;-71
2022/01/19 06:19:37;;;;;;;6.95;5.10;;;;;;;-1.44;100.00;99692.22;4092503;28;20554;-71
2022/01/19 06:21:37;;;;;;;8.82;5.40;;;;;;;-1.35;100.00;99697.13;4091878;28;20057;-72
2022/01/19 06:23:39;;;;;;;7.10;4.97;;;;;;;-1.35;100.00;99686.28;4088113;28;20653;-71
2022/01/19 06:25:39;;;;;;;7.18;5.07;;;;;;;-1.32;100.00;99686.56;4089067;28;20431;-71
2022/01/19 06:27:40;;;;;;;6.28;4.60;;;;;;;-1.37;100.00;99691.97;4093601;28;20169;-72
2022/01/19 06:29:40;;;;;;;6.72;4.93;;;;;;;-1.31;100.00;99685.47;4089738;28;20051;-72
2022/01/19 06:31:41;;;;;;;8.05;5.47;;;;;;;-1.26;100.00;99681.94;4089444;28;21018;-72
2022/01/19 06:33:41;;;;;;;8.40;5.47;;;;;;;-1.27;100.00;99675.69;4088314;28;20055;-72
2022/01/19 06:35:41;;;;;;;10.40;5.90;;;;;;;-1.25;100.00;99669.97;4088130;28;20055;-71
2022/01/19 06:37:42;;;;;;;13.57;7.93;;;;;;;-1.21;100.00;99671.88;4086818;28;20338;-72
2022/01/19 06:39:42;;;;;;;17.52;7.55;;;;;;;-1.19;100.00;99672.41;4087816;28;20039;-72
2022/01/19 06:41:43;;;;;;;12.98;7.95;;;;;;;-1.12;100.00;99664.00;4088064;28;20048;-72
2022/01/19 06:43:43;;;;;;;14.10;8.32;;;;;;;-1.11;100.00;99665.63;4092042;28;20092;-72
2022/01/19 06:45:43;;;;;;;15.27;7.90;;;;;;;-1.11;100.00;99657.50;4104490;28;20568;-71
2022/01/19 06:47:44;;;;;;;12.73;7.60;;;;;;;-1.09;100.00;99668.88;4114377;28;20044;-71
2022/01/19 06:49:44;;;;;;;11.90;6.57;;;;;;;-1.13;100.00;99670.53;4098944;28;20478;-72
2022/01/19 06:51:44;;;;;;;10.77;6.25;;;;;;;-1.25;100.00;99667.25;4090569;28;20097;-71
2022/01/19 06:53:45;;;;;;;10.77;6.05;;;;;;;-1.36;100.00;99676.50;4090390;28;20062;-72
2022/01/19 06:55:45;;;;;;;10.45;6.72;;;;;;;-1.45;100.00;99670.78;4089133;28;20488;-71
2022/01/19 06:57:45;;;;;;;9.90;6.07;;;;;;;-1.49;100.00;99669.69;4089729;28;20158;-71
2022/01/19 06:59:46;;;;;;;12.10;6.75;;;;;;;-1.51;100.00;99659.09;4089773;28;20047;-72
2022/01/19 07:01:46;;;;;;;10.80;5.68;;;;;;;-1.52;100.00;99652.03;4091297;28;20403;-72
2022/01/19 07:03:46;;;;;;;8.32;5.57;;;;;;;-1.49;100.00;99643.38;4091258;28;20086;-71
2022/01/19 07:05:47;;;;;;;9.38;5.30;;;;;;;-1.52;100.00;99654.75;4089290;28;20541;-71
2022/01/19 07:07:48;;;;;;;6.90;4.28;;;;;;;-1.52;100.00;99651.22;4087397;28;20108;-72
2022/01/19 07:09:49;;;;;;;7.35;4.25;;;;;;;-1.54;100.00;99645.25;4098728;28;20090;-71
2022/01/19 07:11:50;;;;;;;8.13;4.68;;;;;;;-1.52;100.00;99645.81;4089213;28;20039;-71
2022/01/19 07:13:50;;;;;;;7.07;4.40;;;;;;;-1.54;100.00;99635.22;4087895;28;20051;-71
2022/01/19 07:15:51;;;;;;;8.00;4.25;;;;;;;-1.61;100.00;99644.72;4088082;28;20058;-72
2022/01/19 07:17:51;;;;;;;12.55;4.65;;;;;;;-1.72;100.00;99638.47;4087926;28;20049;-71
2022/01/19 07:19:51;;;;;;;7.40;4.28;;;;;;;-1.74;100.00;99636.03;4170186;28;20087;-72
2022/01/19 07:21:52;;;;;;;6.75;4.20;;;;;;;-1.67;100.00;99626.78;4088276;28;20055;-72
2022/01/19 07:23:52;;;;;;;5.13;3.63;;;;;;;-1.64;100.00;99624.38;4090477;28;20055;-72
2022/01/19 07:25:52;;;;;;;7.45;4.35;;;;;;;-1.63;100.00;99615.13;4088083;28;20050;-72
2022/01/19 07:27:53;;;;;;;6.85;3.97;;;;;;;-1.61;100.00;99606.72;4088303;28;20407;-72
2022/01/19 07:29:53;;;;;;;7.55;4.82;;;;;;;-1.59;100.00;99618.09;4087919;28;20484;-72
2022/01/19 07:31:56;;;;;;;7.30;3.97;;;;;;;-1.69;100.00;99599.94;4090613;28;20498;-72
2022/01/19 07:33:56;;;;;;;8.25;5.40;;;;;;;-1.71;100.00;99596.69;4088293;28;20051;-72
2022/01/19 07:35:57;;;;;;;12.65;6.07;;;;;;;-1.80;100.00;99607.25;4087891;28;20138;-72
2022/01/19 07:37:57;;;;;;;8.80;5.70;;;;;;;-1.85;100.00;99604.53;4087939;28;20157;-71
2022/01/19 07:39:57;;;;;;;9.30;5.78;;;;;;;-1.91;100.00;99602.88;4088548;28;20053;-71
2022/01/19 07:41:59;;;;;;;8.15;5.63;;;;;;;-1.89;100.00;99592.59;4088819;28;20597;-71
2022/01/19 07:43:59;;;;;;;8.82;5.95;;;;;;;-1.87;100.00;99589.59;4087473;28;20047;-71
2022/01/19 07:45:59;;;;;;;11.40;6.75;;;;;;;-1.88;100.00;99599.63;4088581;28;20052;-72
2022/01/19 07:47:59;;;;;;;9.82;5.97;;;;;;;-1.91;100.00;99610.19;4087906;28;20050;-71
2022/01/19 07:50:00;;;;;;;7.78;5.15;;;;;;;-1.94;100.00;99616.16;4088702;28;20523;-71
2022/01/19 07:52:00;;;;;;;10.18;6.28;;;;;;;-2.02;100.00;99618.31;4088803;28;20450;-72
2022/01/19 07:54:00;;;;;;;9.80;6.55;;;;;;;-1.99;100.00;99615.09;4087225;28;20047;-72
2022/01/19 07:56:03;;;;;;;9.60;6.38;;;;;;;-1.98;100.00;99605.88;4088938;28;20607;-71
2022/01/19 07:58:03;;;;;;;13.93;7.45;;;;;;;-2.01;100.00;99594.72;4092101;28;20074;-71
2022/01/19 08:00:04;;;;;;;13.05;6.95;;;;;;;-2.01;100.00;99594.72;4088640;28;20035;-71
2022/01/19 08:02:05;;;;;;;15.68;7.45;;;;;;;-2.01;100.00;99595.53;4089623;28;20390;-71
2022/01/19 08:04:05;;;;;;;10.00;6.38;;;;;;;-1.84;100.00;99587.16;4087987;28;20033;-72
2022/01/19 08:06:06;;;;;;;12.10;6.78;;;;;;;-1.75;100.00;99582.81;4087861;28;20089;-72
2022/01/19 08:08:07;;;;;;;13.52;6.82;;;;;;;-1.68;100.00;99590.69;4086214;28;20097;-71
2022/01/19 08:10:09;;;;;;;12.00;6.90;;;;;;;-1.73;100.00;99586.09;4091948;28;20031;-71
2022/01/19 08:12:10;;;;;;;8.50;5.50;;;;;;;-1.76;100.00;99583.91;4087693;28;20035;-71
2022/01/19 08:14:10;;;;;;;11.52;6.43;;;;;;;-1.64;100.00;99580.94;4088356;28;20078;-71
2022/01/19 08:16:10;;;;;;;10.40;6.25;;;;;;;-1.64;100.00;99588.28;4091167;28;20034;-72
2022/01/19 08:18:11;;;;;;;14.48;8.52;;;;;;;-1.70;100.00;99571.16;4086601;28;20034;-71
2022/01/19 08:20:12;;;;;;;12.43;7.88;;;;;;;-1.65;100.00;99567.66;4088594;28;20042;-72
2022/01/19 08:22:12;;;;;;;12.75;7.47;;;;;;;-1.65;100.00;99560.31;4091670;28;20475;-72
2022/01/19 08:24:12;;;;;;;13.13;7.65;;;;;;;-1.55;100.00;99559.50;4088329;28;20034;-71
2022/01/19 08:26:13;;;;;;;11.85;6.95;;;;;;;-1.50;100.00;99543.19;4091989;28;20655;-72
2022/01/19 08:28:13;;;;;;;11.57;6.60;;;;;;;-1.42;100.00;99548.06;4089392;28;20270;-71
2022/01/19 08:30:14;;;;;;;9.80;6.00;;;;;;;-1.35;100.00;99542.38;4091110;28;21141;-72
2022/01/19 08:32:15;;;;;;;8.73;6.25;;;;;;;-1.34;100.00;99536.66;4091247;28;20464;-72
2022/01/19 08:34:17;;;;;;;9.88;6.47;;;;;;;-1.37;100.00;99539.94;4093821;28;20066;-72
2022/01/19 08:36:17;;;;;;;13.85;6.95;;;;;;;-1.37;100.00;99545.38;4090594;28;20118;-72
2022/01/19 08:38:18;;;;;;;11.05;6.35;;;;;;;-1.33;100.00;99540.19;4090229;28;20118;-72
2022/01/19 08:40:25;;;;;;;11.32;6.50;;;;;;;-1.33;100.00;99534.75;4092790;28;20038;-72
2022/01/19 08:42:26;;;;;;;12.27;7.68;;;;;;;-1.26;100.00;99533.38;4092205;28;20681;-71
2022/01/19 08:44:26;;;;;;;10.13;6.60;;;;;;;-1.24;100.00;99533.94;4089672;28;20078;-72
2022/01/19 08:46:27;;;;;;;15.00;7.28;;;;;;;-1.24;100.00;99538.53;4091541;28;20120;-72
2022/01/19 08:48:28;;;;;;;10.55;6.28;;;;;;;-1.19;100.00;99528.50;4090063;28;20042;-72
2022/01/19 08:50:29;;;;;;;9.07;4.95;;;;;;;-1.22;100.00;99520.91;4090423;28;20452;-72
2022/01/19 08:52:29;;;;;;;7.47;5.18;;;;;;;-1.17;100.00;99515.44;4090774;28;20043;-71
2022/01/19 08:54:30;;;;;;;7.90;4.90;;;;;;;-1.13;100.00;99511.09;4089703;28;20051;-72
2022/01/19 08:56:30;;;;;;;11.55;5.30;;;;;;;-1.16;100.00;99503.53;4090246;28;20126;-71
2022/01/19 08:58:31;;;;;;;6.88;4.68;;;;;;;-1.08;100.00;99499.38;4089718;28;20098;-72
2022/01/19 09:00:31;;;;;;;8.90;4.85;;;;;;;-1.03;100.00;99495.84;4090671;28;20055;-71
2022/01/19 09:02:32;;;;;;;6.50;4.53;;;;;;;-0.96;100.00;99480.09;4090804;28;20134;-71
2022/01/19 09:04:32;;;;;;;9.80;5.07;;;;;;;-0.92;100.00;99471.09;4093472;28;20487;-71
2022/01/19 09:06:33;;;;;;;7.43;4.45;;;;;;;-0.87;100.00;99476.50;4090426;28;20046;-71
2022/01/19 09:08:34;;;;;;;9.85;4.75;;;;;;;-0.87;100.00;99465.63;4138710;28;20054;-71
2022/01/19 09:10:36;;;;;;;7.55;5.05;;;;;;;-0.83;100.00;99474.03;4090098;28;20062;-72
2022/01/19 09:12:37;;;;;;;6.72;4.65;;;;;;;-0.83;100.00;99457.72;4089343;28;20047;-72
2022/01/19 09:14:37;;;;;;;7.18;4.45;;;;;;;-0.86;100.00;99442.00;4095109;28;20467;-72
2022/01/19 09:16:38;;;;;;;6.03;4.32;;;;;;;-0.83;100.00;99444.13;4089060;28;20061;-72
2022/01/19 09:18:38;;;;;;;7.32;4.55;;;;;;;-0.82;100.00;99439.53;4089199;28;20050;-72
2022/01/19 09:20:38;;;;;;;11.23;4.85;;;;;;;-0.77;100.00;99443.03;4089944;28;20039;-72
2022/01/19 09:22:40;;;;;;;8.27;4.80;;;;;;;-0.72;100.00;99439.50;4089724;28;20561;-72
2022/01/19 09:24:42;;;;;;;8.90;4.20;;;;;;;-0.71;100.00;99427.53;4092828;28;20727;-71
2022/01/19 09:26:44;;;;;;;6.60;4.57;;;;;;;-0.66;100.00;99424.78;4089611;28;20454;-71
2022/01/19 09:28:44;;;;;;;6.75;3.83;;;;;;;-0.62;100.00;99426.63;4089468;28;20510;-72
2022/01/19 09:30:45;;;;;;;6.18;4.10;;;;;;;-0.57;100.00;99421.19;4091574;28;20084;-71
2022/01/19 09:32:54;;;;;;;6.55;4.55;;;;;;;-0.54;100.00;99417.06;4095490;28;20047;-71
2022/01/19 09:34:58;;;;;;;6.72;4.63;;;;;;;-0.50;100.00;99417.31;4090199;28;20059;-71
2022/01/19 09:36:58;;;;;;;7.55;5.05;;;;;;;-0.42;100.00;99427.59;4089528;28;20059;-72
2022/01/19 09:38:59;;;;;;;5.07;4.15;;;;;;;-0.36;100.00;99426.47;4090401;28;20691;-72
2022/01/19 09:40:59;;;;;;;8.10;4.55;;;;;;;-0.33;100.00;99423.19;4175530;28;20045;-72
2022/01/19 09:43:00;;;;;;;5.75;4.22;;;;;;;-0.28;100.00;99417.69;4090461;28;20054;-72
2022/01/19 09:45:01;;;;;;;6.47;4.32;;;;;;;-0.24;100.00;99424.22;4089823;28;20138;-72
2022/01/19 09:47:02;;;;;;;6.70;4.68;;;;;;;-0.19;100.00;99426.88;4089780;28;20231;-72
2022/01/19 09:49:05;;;;;;;10.77;6.15;;;;;;;-0.03;100.00;99422.13;4093580;28;20065;-71
2022/01/19 09:51:06;;;;;;;7.97;4.47;;;;;;;0.08;100.00;99426.38;4089587;28;20086;-72
2022/01/19 09:53:08;;;;;;;11.02;6.00;;;;;;;0.28;100.00;99428.91;4089623;28;20047;-71
2022/01/19 09:55:08;;;;;;;7.65;4.72;;;;;;;0.41;99.96;99421.97;4093788;28;20047;-71
2022/01/19 09:57:08;;;;;;;11.07;5.68;;;;;;;0.50;98.62;99417.53;4088948;28;20166;-72
2022/01/19 09:59:12;;;;;;;10.88;5.40;;;;;;;0.55;99.04;99413.94;4089416;28;20054;-71
2022/01/19 10:01:31;;;;;;;8.55;4.93;;;;;;;0.51;98.74;99411.00;4090022;28;20054;-71
2022/01/19 10:03:33;;;;;;;8.70;5.18;;;;;;;0.48;99.45;99399.84;4091750;28;20081;-72
2022/01/19 10:05:33;;;;;;;8.93;5.88;;;;;;;0.47;99.47;99396.31;4089729;28;20446;-72
2022/01/19 10:07:34;;;;;;;11.30;6.50;;;;;;;0.52;98.33;99398.19;4088339;28;20054;-72
2022/01/19 10:10:05;;;;;;;6.32;4.20;;;;;;;0.62;97.01;99389.88;4092447;28;20058;-71
2022/01/19 10:18:47;;;;;;;6.20;4.97;;;;;;;0.76;92.68;99370.94;4088553;28;20046;-72
2022/01/19 10:21:06;;;;;;;8.63;5.63;;;;;;;0.82;92.69;99372.47;4088799;28;20983;-71
2022/01/19 10:23:33;;;;;;;8.13;5.55;;;;;;;1.01;89.76;99367.06;4088788;28;20063;-72
2022/01/19 10:25:48;;;;;;;12.20;5.78;;;;;;;1.09;89.35;99364.50;4088815;28;20047;-72
2022/01/19 10:27:49;;;;;;;15.82;7.32;;;;;;;1.14;89.16;99358.16;4089126;28;20523;-72
2022/01/19 10:29:52;;;;;;;9.95;5.95;;;;;;;1.12;90.31;99358.44;4088778;28;20050;-72
2022/01/19 10:32:03;;;;;;;8.18;5.03;;;;;;;1.13;91.41;99356.53;4089197;28;20043;-72
2022/01/19 10:34:11;;;;;;;10.90;5.70;;;;;;;1.09;90.85;99344.63;4091204;28;20059;-72
2022/01/19 10:36:11;;;;;;;9.82;6.18;;;;;;;1.13;92.65;99340.19;4089696;28;20042;-72
2022/01/19 10:38:28;;;;;;;10.80;5.40;;;;;;;1.09;93.65;99339.16;4088391;28;20062;-72
2022/01/19 10:40:29;;;;;;;8.80;4.97;;;;;;;1.09;92.01;99341.88;4089162;28;20503;-71
2022/01/19 10:42:34;;;;;;;7.07;4.38;;;;;;;1.12;91.00;99341.28;4089795;28;20553;-72
2022/01/19 10:44:41;;;;;;;7.00;3.17;;;;;;;1.13;89.77;99329.28;4090016;28;20054;-72
2022/01/19 10:46:45;;;;;;;5.80;3.55;;;;;;;1.21;88.17;99336.78;4089242;28;20050;-72
2022/01/19 10:48:45;;;;;;;5.68;3.63;;;;;;;1.25;87.41;99337.03;4088626;28;20058;-72
2022/01/19 10:50:46;;;;;;;5.38;3.55;;;;;;;1.31;87.22;99338.53;4087756;28;20475;-72